Time;durP1;ratioP1;P1;durP2;ratioP2;P2;SDS_P1;SDS_P2;PMS_P1;PMS_P2;Temp;Humidity;BMP_temperature;BMP_pressure;BME280_temperature;BME280_humidity;BME280_pressure;Samples;Min_cycle;Max_cycle;Signal;HPM_P1;HPM_P2
2021/12/17 00:05:05;;;;;;;89.07;25.57;;;;;;;;;;5001100;28;20198;-70
2021/12/17 00:07:35;;;;;;;86.10;25.60;;;;;;;;;;5007801;28;20310;-70
2021/12/17 00:10:05;;;;;;;87.90;24.93;;;;;;;;;;4997248;28;20198;-70
2021/12/17 00:12:30;;;;;;;83.32;24.90;;;;;;;;;;5009014;28;20582;-70
2021/12/17 00:14:57;;;;;;;79.97;24.63;;;;;;;;;;4996468;28;20268;-70
2021/12/17 00:17:31;;;;;;;94.03;27.60;;;;;;;;;;5004871;28;20245;-70
2021/12/17 00:49:48;;;;;;;105.10;28.02;;;;;;;;;;5006602;28;20595;-71
2021/12/17 00:52:14;;;;;;;109.47;26.75;;;;;;;;;;5012221;28;20245;-71
2021/12/17 00:54:41;;;;;;;97.90;25.95;;;;;;;;;;5004454;28;20286;-71
2021/12/17 00:57:06;;;;;;;109.20;27.67;;;;;;;;;;5002666;28;20194;-70
2021/12/17 00:59:32;;;;;;;110.35;25.75;;;;;;;;;;5007056;28;20187;-70
2021/12/17 01:02:00;;;;;;;119.03;27.38;;;;;;;;;;4999139;28;20234;-70
2021/12/17 01:04:26;;;;;;;119.97;27.30;;;;;;;;;;4999925;28;20642;-70
2021/12/17 01:06:52;;;;;;;102.33;27.03;;;;;;;;;;4995805;28;20290;-70
2021/12/17 01:09:22;;;;;;;103.20;26.43;;;;;;;;;;5004177;28;20276;-70
2021/12/17 01:11:48;;;;;;;110.27;26.80;;;;;;;;;;5001169;28;20182;-70
2021/12/17 01:14:13;;;;;;;103.97;26.80;;;;;;;;;;5004909;28;20187;-70
2021/12/17 01:16:39;;;;;;;112.73;26.57;;;;;;;;;;4995906;28;20651;-70
2021/12/17 01:21:55;;;;;;;121.47;27.83;;;;;;;;;;5006773;28;20230;-70
2021/12/17 01:35:28;;;;;;;116.87;26.87;;;;;;;;;;5005836;28;20190;-70
2021/12/17 01:39:04;;;;;;;141.43;30.40;;;;;;;;;;4995066;28;20195;-70
2021/12/17 01:43:25;;;;;;;149.27;29.53;;;;;;;;;;4995904;28;20198;-71
2021/12/17 01:45:51;;;;;;;140.93;28.47;;;;;;;;;;5008141;28;20182;-70
2021/12/17 01:48:22;;;;;;;147.27;29.33;;;;;;;;;;4995982;28;20569;-70
2021/12/17 02:01:35;;;;;;;120.03;26.87;;;;;;;;;;5006712;28;20220;-70
2021/12/17 02:04:03;;;;;;;104.23;24.23;;;;;;;;;;4987974;28;20190;-70
2021/12/17 02:06:29;;;;;;;95.60;23.40;;;;;;;;;;5004330;28;20604;-70
2021/12/17 02:08:57;;;;;;;101.10;24.13;;;;;;;;;;4998412;28;20206;-70
2021/12/17 02:19:48;;;;;;;81.80;21.13;;;;;;;;;;5002469;28;20213;-71
2021/12/17 02:23:01;;;;;;;96.47;23.73;;;;;;;;;;5005843;28;20226;-70
2021/12/17 02:31:08;;;;;;;80.83;20.10;;;;;;;;;;4995801;28;20274;-70
2021/12/17 02:33:34;;;;;;;69.10;17.77;;;;;;;;;;5003849;28;20199;-70
2021/12/17 02:36:01;;;;;;;57.10;16.87;;;;;;;;;;5001923;28;20508;-70
2021/12/17 02:38:28;;;;;;;51.13;15.57;;;;;;;;;;5003482;28;20194;-70
2021/12/17 02:46:25;;;;;;;67.50;17.30;;;;;;;;;;4994576;28;20304;-71
2021/12/17 02:48:51;;;;;;;49.83;14.40;;;;;;;;;;5001528;28;20915;-71
2021/12/17 02:51:17;;;;;;;47.00;14.70;;;;;;;;;;5005132;28;20179;-71
2021/12/17 02:53:43;;;;;;;48.33;15.67;;;;;;;;;;4996407;28;20266;-71
2021/12/17 02:56:08;;;;;;;45.60;14.17;;;;;;;;;;5007647;28;20214;-71
2021/12/17 02:58:36;;;;;;;58.07;15.30;;;;;;;;;;4999661;28;20202;-70
2021/12/17 03:01:06;;;;;;;52.13;15.17;;;;;;;;;;5006733;28;20221;-70
2021/12/17 03:03:33;;;;;;;55.53;15.87;;;;;;;;;;4998027;28;20211;-71
2021/12/17 03:06:00;;;;;;;56.00;15.33;;;;;;;;;;5012700;28;20240;-71
2021/12/17 03:08:26;;;;;;;58.30;16.37;;;;;;;;;;5002814;28;20190;-71
2021/12/17 03:10:52;;;;;;;55.73;15.47;;;;;;;;;;5003896;28;20236;-71
2021/12/17 03:13:21;;;;;;;59.73;15.93;;;;;;;;;;5001274;28;20183;-71
2021/12/17 03:15:55;;;;;;;61.63;15.80;;;;;;;;;;5006487;28;20183;-71
2021/12/17 03:18:52;;;;;;;50.67;16.17;;;;;;;;;;4991615;28;20194;-71
2021/12/17 03:23:55;;;;;;;55.00;15.60;;;;;;;;;;4998207;28;20225;-71
2021/12/17 03:26:24;;;;;;;51.03;14.87;;;;;;;;;;5006733;28;20191;-71
2021/12/17 03:28:52;;;;;;;53.57;15.80;;;;;;;;;;4994638;28;20205;-71
2021/12/17 03:31:19;;;;;;;57.70;15.73;;;;;;;;;;5003897;28;20182;-71
2021/12/17 03:33:48;;;;;;;52.83;15.43;;;;;;;;;;4993711;28;21612;-71
2021/12/17 03:36:15;;;;;;;56.40;16.00;;;;;;;;;;5005962;28;20186;-71
2021/12/17 03:38:47;;;;;;;52.23;15.70;;;;;;;;;;5001401;28;20182;-71
2021/12/17 03:43:39;;;;;;;55.20;15.07;;;;;;;;;;5006524;28;20187;-71
2021/12/17 03:46:04;;;;;;;60.80;15.80;;;;;;;;;;4998900;28;20193;-71
2021/12/17 03:48:31;;;;;;;51.43;13.93;;;;;;;;;;5008209;28;20188;-71
2021/12/17 03:50:56;;;;;;;54.30;14.73;;;;;;;;;;4999171;28;20205;-71
2021/12/17 03:53:22;;;;;;;52.73;14.40;;;;;;;;;;5006259;28;20551;-71
2021/12/17 03:55:47;;;;;;;53.93;14.43;;;;;;;;;;4991884;28;20651;-71
2021/12/17 03:58:13;;;;;;;47.73;14.47;;;;;;;;;;5005121;28;20683;-71
2021/12/17 04:00:38;;;;;;;49.97;15.07;;;;;;;;;;4997426;28;20187;-71
2021/12/17 04:03:04;;;;;;;50.93;14.70;;;;;;;;;;5006999;28;20314;-71
2021/12/17 04:05:29;;;;;;;47.10;14.60;;;;;;;;;;5003600;28;20505;-71
2021/12/17 04:07:54;;;;;;;45.83;14.23;;;;;;;;;;5004704;28;20187;-71
2021/12/17 04:10:21;;;;;;;44.67;13.60;;;;;;;;;;4999194;28;20218;-71
2021/12/17 04:15:30;;;;;;;39.77;12.53;;;;;;;;;;5007634;28;20190;-71
2021/12/17 04:17:58;;;;;;;51.00;12.90;;;;;;;;;;4995352;28;20187;-71
2021/12/17 04:20:23;;;;;;;39.73;11.90;;;;;;;;;;5010050;28;20206;-71
2021/12/17 04:22:48;;;;;;;42.87;12.57;;;;;;;;;;4997771;28;20308;-71
2021/12/17 04:25:14;;;;;;;38.43;12.07;;;;;;;;;;5009021;28;20217;-71
2021/12/17 04:27:39;;;;;;;36.57;10.97;;;;;;;;;;4999585;28;20179;-71
2021/12/17 04:30:05;;;;;;;46.30;12.33;;;;;;;;;;5012116;28;20274;-71
2021/12/17 04:32:31;;;;;;;41.30;11.77;;;;;;;;;;4993261;28;20207;-71
2021/12/17 04:34:56;;;;;;;34.33;11.33;;;;;;;;;;5007822;28;20250;-71
2021/12/17 04:37:22;;;;;;;40.10;12.07;;;;;;;;;;4991090;28;20192;-71
2021/12/17 04:39:47;;;;;;;41.53;11.33;;;;;;;;;;5015477;28;20175;-71
2021/12/17 04:42:24;;;;;;;42.17;11.83;;;;;;;;;;4993441;28;20701;-71
2021/12/17 04:44:56;;;;;;;44.93;12.03;;;;;;;;;;5005116;28;20574;-71
2021/12/17 04:58:26;;;;;;;45.93;13.57;;;;;;;;;;4997658;28;20256;-71
2021/12/17 05:00:52;;;;;;;56.97;14.20;;;;;;;;;;5002922;28;20595;-71
2021/12/17 05:03:17;;;;;;;55.33;13.47;;;;;;;;;;4994545;28;20559;-71
2021/12/17 05:05:43;;;;;;;47.77;13.07;;;;;;;;;;5001443;28;20184;-71
2021/12/17 05:08:13;;;;;;;60.53;12.83;;;;;;;;;;5003055;28;20205;-71
2021/12/17 05:18:52;;;;;;;62.13;14.17;;;;;;;;;;4995413;28;20345;-71
2021/12/17 05:21:17;;;;;;;55.83;14.50;;;;;;;;;;5010255;28;20217;-71
2021/12/17 05:23:44;;;;;;;53.80;14.77;;;;;;;;;;5004537;28;20227;-71
2021/12/17 05:26:14;;;;;;;59.70;13.80;;;;;;;;;;4999795;28;20178;-71
2021/12/17 05:28:40;;;;;;;49.57;13.70;;;;;;;;;;4999735;28;20771;-71
2021/12/17 05:31:06;;;;;;;51.23;13.73;;;;;;;;;;4998401;28;20266;-71
2021/12/17 05:33:32;;;;;;;68.33;15.60;;;;;;;;;;5003836;28;20190;-71
2021/12/17 05:35:57;;;;;;;58.43;13.73;;;;;;;;;;5002950;28;20240;-72
2021/12/17 05:38:24;;;;;;;58.20;13.53;;;;;;;;;;5009071;28;20344;-71
2021/12/17 05:40:49;;;;;;;58.70;14.43;;;;;;;;;;4999460;28;20540;-71
2021/12/17 05:43:16;;;;;;;66.77;15.13;;;;;;;;;;5000509;28;20183;-71
2021/12/17 05:48:13;;;;;;;58.33;13.90;;;;;;;;;;5010680;28;20186;-71
2021/12/17 05:50:41;;;;;;;63.33;14.83;;;;;;;;;;4997573;28;20651;-71
2021/12/17 05:53:07;;;;;;;71.30;15.47;;;;;;;;;;5007600;28;20171;-71
2021/12/17 05:55:34;;;;;;;48.83;12.98;;;;;;;;;;5004904;28;20206;-71
2021/12/17 05:57:59;;;;;;;43.87;12.73;;;;;;;;;;4999000;28;20191;-71
2021/12/17 06:00:25;;;;;;;48.47;12.50;;;;;;;;;;5001631;28;20199;-71
2021/12/17 06:02:51;;;;;;;40.30;12.73;;;;;;;;;;5004523;28;20684;-71
2021/12/17 06:05:17;;;;;;;44.00;12.23;;;;;;;;;;5005927;28;20240;-70
2021/12/17 06:07:43;;;;;;;43.90;11.25;;;;;;;;;;4990456;28;20433;-70
2021/12/17 06:10:09;;;;;;;38.53;12.00;;;;;;;;;;5003693;28;20274;-70
2021/12/17 06:12:36;;;;;;;39.43;11.50;;;;;;;;;;5000555;28;20296;-70
2021/12/17 06:15:05;;;;;;;34.67;11.20;;;;;;;;;;5001169;28;20261;-70
2021/12/17 06:17:30;;;;;;;43.70;11.83;;;;;;;;;;4998664;28;20543;-70
2021/12/17 06:19:55;;;;;;;36.47;11.75;;;;;;;;;;5002657;28;20202;-69
2021/12/17 06:22:21;;;;;;;36.65;11.43;;;;;;;;;;4996617;28;20289;-71
2021/12/17 06:24:46;;;;;;;34.10;11.50;;;;;;;;;;5004141;28;20241;-71
2021/12/17 06:27:13;;;;;;;34.87;11.07;;;;;;;;;;5005750;28;20195;-71
2021/12/17 06:29:39;;;;;;;41.10;11.23;;;;;;;;;;4995100;28;20197;-71
2021/12/17 06:32:05;;;;;;;42.37;11.33;;;;;;;;;;5009087;28;20187;-71
2021/12/17 06:34:31;;;;;;;40.77;12.13;;;;;;;;;;4998727;28;20283;-71
2021/12/17 06:36:56;;;;;;;35.53;10.83;;;;;;;;;;5002004;28;22035;-71
2021/12/17 06:39:21;;;;;;;41.73;12.87;;;;;;;;;;4992609;28;20213;-70
2021/12/17 06:41:47;;;;;;;36.83;12.37;;;;;;;;;;5004748;28;20261;-70
2021/12/17 06:44:15;;;;;;;44.57;12.00;;;;;;;;;;4993477;28;20206;-71
2021/12/17 06:46:59;;;;;;;48.20;13.50;;;;;;;;;;5000593;28;20187;-71
2021/12/17 06:49:41;;;;;;;40.33;12.00;;;;;;;;;;4992440;28;20278;-71
2021/12/17 07:05:57;;;;;;;37.57;11.70;;;;;;;;;;5004180;28;20685;-71
2021/12/17 07:10:51;;;;;;;37.73;11.97;;;;;;;;;;4999586;28;20185;-71
2021/12/17 07:21:37;;;;;;;37.73;12.30;;;;;;;;;;5007029;28;20210;-71
2021/12/17 07:31:25;;;;;;;40.83;11.60;;;;;;;;;;5011462;28;20363;-71
2021/12/17 07:32:38;;;;;;;42.40;12.83;;;;;;;;;;5011668;28;20221;-71
2021/12/17 07:40:10;;;;;;;41.37;13.03;;;;;;;;;;5012266;28;20183;-71
2021/12/17 07:42:36;;;;;;;42.53;13.33;;;;;;;;;;5001946;28;20202;-71
2021/12/17 07:45:03;;;;;;;46.37;12.03;;;;;;;;;;5011768;28;20221;-71
2021/12/17 07:47:29;;;;;;;39.75;12.73;;;;;;;;;;4998443;28;20191;-71
2021/12/17 07:49:54;;;;;;;42.23;13.37;;;;;;;;;;5009491;28;20713;-71
2021/12/17 07:52:20;;;;;;;46.00;12.77;;;;;;;;;;5003709;28;20203;-71
2021/12/17 07:54:45;;;;;;;40.70;12.23;;;;;;;;;;5016189;28;20343;-71
2021/12/17 07:57:11;;;;;;;47.08;12.38;;;;;;;;;;5010106;28;20191;-71
2021/12/17 07:59:36;;;;;;;43.13;12.47;;;;;;;;;;5008722;28;20265;-71
2021/12/17 08:02:02;;;;;;;42.53;12.57;;;;;;;;;;5008881;28;20678;-71
2021/12/17 08:04:28;;;;;;;44.00;13.23;;;;;;;;;;5005020;28;20467;-71
2021/12/17 08:06:53;;;;;;;52.37;13.67;;;;;;;;;;5012963;28;20257;-70
2021/12/17 08:09:21;;;;;;;43.37;12.03;;;;;;;;;;5005157;28;20214;-69
2021/12/17 08:11:54;;;;;;;43.15;13.18;;;;;;;;;;5009564;28;20607;-68
2021/12/17 08:14:20;;;;;;;49.17;13.87;;;;;;;;;;5002433;28;20236;-67
2021/12/17 08:17:03;;;;;;;49.60;13.68;;;;;;;;;;5010769;28;20191;-68
2021/12/17 08:24:57;;;;;;;49.30;13.95;;;;;;;;;;5003795;28;20300;-68
2021/12/17 08:28:23;;;;;;;45.28;13.35;;;;;;;;;;5010587;28;20193;-68
2021/12/17 08:30:24;;;;;;;45.47;13.65;;;;;;;;;;5004788;28;20191;-68
2021/12/17 08:32:50;;;;;;;41.72;13.18;;;;;;;;;;5009137;28;20171;-68
2021/12/17 08:35:15;;;;;;;48.83;13.52;;;;;;;;;;5002307;28;20185;-68
2021/12/17 08:37:42;;;;;;;43.17;13.65;;;;;;;;;;5007841;28;20673;-68
2021/12/17 08:40:08;;;;;;;44.47;13.95;;;;;;;;;;4999997;28;20191;-68
2021/12/17 08:42:35;;;;;;;40.60;12.60;;;;;;;;;;5006085;28;20264;-68
2021/12/17 08:45:01;;;;;;;38.10;12.73;;;;;;;;;;4999818;28;20265;-68
2021/12/17 08:47:26;;;;;;;41.47;12.52;;;;;;;;;;5005592;28;20209;-68
2021/12/17 08:49:53;;;;;;;39.45;13.20;;;;;;;;;;5001302;28;20257;-68
2021/12/17 08:52:19;;;;;;;42.85;12.80;;;;;;;;;;5006646;28;20197;-68
2021/12/17 08:54:44;;;;;;;37.53;13.05;;;;;;;;;;5005983;28;20210;-68
2021/12/17 08:57:10;;;;;;;35.20;11.65;;;;;;;;;;4999091;28;20175;-68
2021/12/17 08:59:36;;;;;;;36.05;12.48;;;;;;;;;;5005625;28;20182;-67
2021/12/17 09:02:03;;;;;;;40.80;13.52;;;;;;;;;;5005835;28;20207;-67
2021/12/17 09:04:29;;;;;;;33.33;12.55;;;;;;;;;;5006141;28;20529;-68
2021/12/17 09:06:55;;;;;;;37.95;11.80;;;;;;;;;;4991029;28;20190;-67
2021/12/17 09:09:22;;;;;;;36.78;12.55;;;;;;;;;;5009937;28;20178;-67
2021/12/17 09:11:48;;;;;;;36.38;11.63;;;;;;;;;;5005679;28;20234;-67
2021/12/17 09:14:15;;;;;;;34.92;13.13;;;;;;;;;;5007349;28;20179;-67
2021/12/17 09:16:40;;;;;;;32.53;11.40;;;;;;;;;;4998442;28;20702;-67
2021/12/17 09:19:07;;;;;;;28.85;11.50;;;;;;;;;;5010316;28;20246;-67
2021/12/17 09:21:33;;;;;;;29.07;11.13;;;;;;;;;;4997540;28;20302;-67
2021/12/17 09:23:58;;;;;;;28.03;9.83;;;;;;;;;;5005533;28;20197;-67
2021/12/17 09:26:24;;;;;;;26.85;10.55;;;;;;;;;;5010787;28;20218;-67
2021/12/17 09:28:50;;;;;;;26.83;11.00;;;;;;;;;;4997278;28;20248;-67
2021/12/17 09:31:16;;;;;;;27.37;10.03;;;;;;;;;;5011619;28;20214;-67
2021/12/17 09:33:45;;;;;;;29.13;10.77;;;;;;;;;;4998179;28;20195;-67
2021/12/17 09:36:11;;;;;;;26.73;10.60;;;;;;;;;;5007221;28;20183;-67
2021/12/17 09:38:37;;;;;;;26.30;10.70;;;;;;;;;;4997063;28;20191;-67
2021/12/17 09:41:04;;;;;;;23.37;10.50;;;;;;;;;;5008677;28;20190;-68
2021/12/17 09:43:30;;;;;;;23.85;10.30;;;;;;;;;;4999215;28;20287;-67
2021/12/17 09:45:56;;;;;;;42.75;20.55;;;;;;;;;;5008261;28;20279;-67
2021/12/17 09:48:22;;;;;;;23.13;10.75;;;;;;;;;;4999734;28;20630;-67
2021/12/17 09:50:48;;;;;;;28.20;9.95;;;;;;;;;;5004946;28;20527;-67
2021/12/17 09:53:14;;;;;;;21.42;9.77;;;;;;;;;;5003221;28;20181;-67
2021/12/17 09:55:39;;;;;;;23.35;9.30;;;;;;;;;;5003333;28;20207;-67
2021/12/17 09:58:05;;;;;;;18.60;9.13;;;;;;;;;;5005239;28;20551;-67
2021/12/17 10:00:30;;;;;;;28.25;10.57;;;;;;;;;;4995929;28;20250;-67
2021/12/17 10:02:56;;;;;;;24.13;10.77;;;;;;;;;;5015782;28;20305;-67
2021/12/17 10:05:23;;;;;;;20.13;10.23;;;;;;;;;;4999761;28;20194;-67
2021/12/17 10:07:55;;;;;;;27.13;11.38;;;;;;;;;;5009339;28;20261;-67
2021/12/17 10:10:20;;;;;;;22.90;10.18;;;;;;;;;;5002361;28;20194;-67
2021/12/17 10:12:47;;;;;;;20.97;9.53;;;;;;;;;;5012214;28;20194;-67
2021/12/17 10:15:18;;;;;;;23.40;10.80;;;;;;;;;;5000660;28;20194;-67
2021/12/17 10:17:52;;;;;;;22.60;10.98;;;;;;;;;;5021106;28;20288;-67
2021/12/17 10:20:19;;;;;;;22.87;10.00;;;;;;;;;;5005155;28;20190;-67
2021/12/17 10:22:45;;;;;;;21.27;10.85;;;;;;;;;;5010251;28;20231;-67
2021/12/17 10:25:11;;;;;;;23.92;10.50;;;;;;;;;;5003189;28;20198;-67
2021/12/17 10:27:39;;;;;;;21.15;10.35;;;;;;;;;;5009651;28;20195;-67
2021/12/17 10:30:18;;;;;;;24.00;10.37;;;;;;;;;;5002702;28;20183;-67
2021/12/17 10:32:46;;;;;;;22.02;10.60;;;;;;;;;;5008009;28;20216;-67
2021/12/17 10:35:16;;;;;;;23.67;10.83;;;;;;;;;;5007838;28;20180;-67
2021/12/17 10:37:45;;;;;;;20.08;9.90;;;;;;;;;;5001813;28;20187;-67
2021/12/17 10:40:15;;;;;;;19.17;9.95;;;;;;;;;;5014997;28;20187;-67
2021/12/17 10:42:48;;;;;;;19.45;9.88;;;;;;;;;;5001711;28;20211;-67
2021/12/17 10:45:23;;;;;;;18.03;8.97;;;;;;;;;;5023592;28;20178;-67
2021/12/17 10:48:01;;;;;;;16.15;9.05;;;;;;;;;;5002965;28;20769;-67
2021/12/17 10:50:27;;;;;;;20.27;9.52;;;;;;;;;;5016984;28;20198;-67
2021/12/17 10:52:56;;;;;;;19.02;8.60;;;;;;;;;;5005718;28;20197;-67
2021/12/17 10:55:24;;;;;;;17.70;8.77;;;;;;;;;;5015229;28;20215;-68
2021/12/17 10:57:50;;;;;;;15.90;8.48;;;;;;;;;;4999858;28;20705;-67
2021/12/17 11:00:17;;;;;;;14.52;8.13;;;;;;;;;;5010221;28;20198;-67
2021/12/17 11:02:50;;;;;;;17.48;8.00;;;;;;;;;;4998305;28;20219;-67
2021/12/17 11:05:17;;;;;;;15.98;8.25;;;;;;;;;;5010701;28;20190;-67
2021/12/17 11:07:47;;;;;;;14.85;7.72;;;;;;;;;;4998604;28;20221;-67
2021/12/17 11:10:15;;;;;;;15.55;8.05;;;;;;;;;;5008788;28;20226;-67
2021/12/17 11:12:42;;;;;;;12.07;7.23;;;;;;;;;;4999904;28;20341;-68
2021/12/17 11:15:19;;;;;;;13.20;7.25;;;;;;;;;;5008519;28;20285;-67
2021/12/17 11:17:57;;;;;;;13.32;6.78;;;;;;;;;;5001988;28;20190;-68
2021/12/17 11:20:28;;;;;;;15.60;7.28;;;;;;;;;;5009804;28;20264;-67
2021/12/17 11:22:56;;;;;;;16.88;8.52;;;;;;;;;;4998834;28;20258;-67
2021/12/17 11:25:23;;;;;;;14.82;7.60;;;;;;;;;;5012292;28;20243;-67
2021/12/17 11:27:51;;;;;;;13.52;7.85;;;;;;;;;;5003647;28;20186;-68
2021/12/17 11:30:20;;;;;;;16.95;8.20;;;;;;;;;;4999773;28;20237;-67
2021/12/17 11:32:48;;;;;;;16.95;7.63;;;;;;;;;;5008767;28;20186;-68
2021/12/17 11:35:16;;;;;;;13.60;7.00;;;;;;;;;;5001757;28;20187;-68
2021/12/17 11:37:44;;;;;;;15.98;7.95;;;;;;;;;;5010935;28;20191;-68
2021/12/17 11:40:17;;;;;;;13.95;7.15;;;;;;;;;;4999907;28;20277;-68
2021/12/17 11:43:20;;;;;;;13.65;6.97;;;;;;;;;;5011774;28;20237;-67
2021/12/17 11:45:58;;;;;;;13.65;7.95;;;;;;;;;;5001675;28;20297;-67
2021/12/17 11:48:26;;;;;;;18.88;10.00;;;;;;;;;;5006905;28;20199;-68
2021/12/17 11:51:12;;;;;;;13.95;7.70;;;;;;;;;;5001315;28;20249;-68
2021/12/17 11:54:03;;;;;;;18.55;8.68;;;;;;;;;;5006161;28;20232;-67
2021/12/17 11:56:49;;;;;;;18.75;8.07;;;;;;;;;;4990228;28;20191;-67
2021/12/17 11:59:33;;;;;;;13.23;7.68;;;;;;;;;;5008350;28;20170;-68
2021/12/17 12:02:00;;;;;;;18.30;8.00;;;;;;;;;;5003563;28;20700;-68
2021/12/17 12:04:32;;;;;;;14.50;8.13;;;;;;;;;;5013026;28;20222;-70
2021/12/17 12:07:19;;;;;;;16.05;7.85;;;;;;;;;;4997535;28;20205;-70
2021/12/17 12:10:00;;;;;;;15.20;8.10;;;;;;;;;;5006026;28;20671;-67
2021/12/17 12:12:34;;;;;;;13.95;7.78;;;;;;;;;;5001130;28;20278;-67
2021/12/17 12:15:27;;;;;;;16.98;8.10;;;;;;;;;;5012657;28;20198;-68
2021/12/17 12:17:58;;;;;;;14.70;7.78;;;;;;;;;;5012551;28;20273;-68
2021/12/17 12:20:41;;;;;;;14.05;7.18;;;;;;;;;;5008969;28;20206;-67
2021/12/17 12:23:32;;;;;;;12.60;7.45;;;;;;;;;;5007400;28;20258;-68
2021/12/17 12:26:04;;;;;;;14.85;7.45;;;;;;;;;;4996829;28;20607;-67
2021/12/17 12:28:54;;;;;;;15.30;7.95;;;;;;;;;;5016788;28;20210;-67
2021/12/17 12:31:19;;;;;;;13.82;7.85;;;;;;;;;;4993887;28;20201;-68
2021/12/17 12:37:01;;;;;;;14.85;8.40;;;;;;;;;;4996629;28;20533;-68
2021/12/17 12:39:32;;;;;;;17.52;9.35;;;;;;;;;;5000130;28;20630;-67
2021/12/17 12:42:07;;;;;;;14.90;8.50;;;;;;;;;;4996361;28;20674;-67
2021/12/17 12:44:44;;;;;;;16.55;8.45;;;;;;;;;;5006624;28;20198;-67
2021/12/17 12:47:25;;;;;;;17.17;7.85;;;;;;;;;;4997205;28;20178;-66
2021/12/17 12:50:14;;;;;;;13.15;7.80;;;;;;;;;;5002432;28;20226;-67
2021/12/17 12:52:54;;;;;;;14.20;8.20;;;;;;;;;;4993420;28;20182;-67
2021/12/17 12:55:35;;;;;;;14.70;7.35;;;;;;;;;;5012261;28;20210;-67
2021/12/17 12:58:06;;;;;;;20.00;8.57;;;;;;;;;;5001451;28;20195;-66
2021/12/17 13:00:44;;;;;;;13.75;8.07;;;;;;;;;;5004409;28;20179;-67
2021/12/17 13:03:12;;;;;;;15.32;7.82;;;;;;;;;;5001873;28;20710;-66
2021/12/17 13:05:38;;;;;;;15.95;8.60;;;;;;;;;;5013132;28;20185;-66
2021/12/17 13:08:07;;;;;;;13.93;8.30;;;;;;;;;;5000747;28;20191;-66
2021/12/17 13:10:35;;;;;;;14.35;7.88;;;;;;;;;;5001246;28;20175;-66
2021/12/17 13:13:16;;;;;;;16.58;8.57;;;;;;;;;;5008142;28;20206;-66
2021/12/17 13:15:49;;;;;;;13.40;8.05;;;;;;;;;;5001032;28;20197;-66
2021/12/17 13:21:32;;;;;;;12.63;8.10;;;;;;;;;;5018034;28;20211;-67
2021/12/17 13:24:15;;;;;;;17.70;10.35;;;;;;;;;;5003519;28;20219;-67
2021/12/17 13:26:47;;;;;;;15.50;7.88;;;;;;;;;;5007577;28;20273;-66
2021/12/17 13:29:21;;;;;;;15.90;8.63;;;;;;;;;;4997487;28;20218;-66
2021/12/17 13:32:10;;;;;;;13.07;7.93;;;;;;;;;;5002864;28;20678;-66
2021/12/17 13:34:38;;;;;;;12.52;7.85;;;;;;;;;;5001444;28;20191;-66
2021/12/17 13:37:16;;;;;;;11.15;7.28;;;;;;;;;;5008857;28;20190;-67
2021/12/17 13:39:44;;;;;;;15.73;8.25;;;;;;;;;;5006630;28;20280;-67
2021/12/17 13:42:14;;;;;;;14.20;7.63;;;;;;;;;;5006827;28;20284;-67
2021/12/17 13:44:46;;;;;;;10.93;7.90;;;;;;;;;;5006364;28;20226;-67
2021/12/17 13:47:15;;;;;;;12.77;8.13;;;;;;;;;;5003585;28;20186;-66
2021/12/17 13:49:44;;;;;;;15.43;7.93;;;;;;;;;;5011488;28;20611;-66
2021/12/17 13:52:09;;;;;;;12.90;7.88;;;;;;;;;;4997104;28;20625;-67
2021/12/17 13:54:36;;;;;;;11.48;7.38;;;;;;;;;;5010687;28;20218;-66
2021/12/17 13:57:04;;;;;;;13.63;8.05;;;;;;;;;;4997224;28;20213;-67
2021/12/17 13:59:36;;;;;;;12.27;8.52;;;;;;;;;;5010881;28;20237;-68
2021/12/17 14:02:15;;;;;;;12.60;8.27;;;;;;;;;;4998541;28;20294;-67
2021/12/17 14:04:43;;;;;;;14.52;8.43;;;;;;;;;;5002490;28;20228;-66
2021/12/17 14:07:10;;;;;;;13.05;7.75;;;;;;;;;;4998033;28;20250;-66
2021/12/17 14:09:36;;;;;;;14.75;8.60;;;;;;;;;;5003418;28;20352;-67
2021/12/17 14:12:11;;;;;;;13.32;8.20;;;;;;;;;;4994070;28;20289;-66
2021/12/17 14:14:36;;;;;;;11.50;7.57;;;;;;;;;;5002619;28;20205;-67
2021/12/17 14:17:05;;;;;;;12.85;8.00;;;;;;;;;;5002614;28;20615;-67
2021/12/17 14:19:38;;;;;;;13.57;7.88;;;;;;;;;;5006097;28;20182;-66
2021/12/17 14:22:27;;;;;;;11.65;7.47;;;;;;;;;;4998761;28;20340;-67
2021/12/17 14:24:52;;;;;;;14.70;7.53;;;;;;;;;;5004080;28;20179;-67
2021/12/17 14:27:18;;;;;;;16.52;8.80;;;;;;;;;;4999687;28;20554;-67
2021/12/17 14:29:43;;;;;;;15.85;8.70;;;;;;;;;;5007353;28;20183;-67
2021/12/17 14:32:16;;;;;;;14.95;9.05;;;;;;;;;;5012053;28;20658;-67
2021/12/17 14:34:42;;;;;;;16.30;8.52;;;;;;;;;;5011787;28;20182;-67
2021/12/17 14:37:07;;;;;;;19.97;9.30;;;;;;;;;;5010541;28;20523;-67
2021/12/17 14:39:38;;;;;;;16.73;9.25;;;;;;;;;;5004184;28;20265;-67
2021/12/17 14:42:04;;;;;;;19.77;10.17;;;;;;;;;;5006435;28;20199;-67
2021/12/17 14:44:50;;;;;;;18.63;9.18;;;;;;;;;;5005334;28;20190;-67
2021/12/17 14:47:26;;;;;;;15.20;9.45;;;;;;;;;;5008675;28;20245;-67
2021/12/17 15:02:58;;;;;;;16.95;9.68;;;;;;;;;;5009718;28;20214;-67
2021/12/17 15:05:26;;;;;;;18.50;9.70;;;;;;;;;;4999165;28;20381;-66
2021/12/17 15:07:53;;;;;;;20.90;9.82;;;;;;;;;;5007020;28;20190;-67
2021/12/17 15:10:19;;;;;;;15.65;9.73;;;;;;;;;;5002098;28;20190;-67
2021/12/17 15:12:46;;;;;;;19.30;10.18;;;;;;;;;;5012859;28;20638;-66
2021/12/17 15:15:15;;;;;;;16.52;10.13;;;;;;;;;;4999377;28;20353;-67
2021/12/17 15:17:41;;;;;;;18.80;10.50;;;;;;;;;;5011878;28;20223;-67
2021/12/17 15:20:09;;;;;;;18.33;10.85;;;;;;;;;;4999038;28;20194;-67
2021/12/17 15:22:34;;;;;;;19.77;10.93;;;;;;;;;;5010162;28;20227;-67
2021/12/17 15:25:00;;;;;;;20.33;11.03;;;;;;;;;;4998900;28;20193;-67
2021/12/17 15:27:29;;;;;;;18.83;10.30;;;;;;;;;;5012205;28;20190;-67
2021/12/17 15:29:54;;;;;;;17.60;10.33;;;;;;;;;;5009283;28;20199;-67
2021/12/17 15:32:20;;;;;;;21.77;10.47;;;;;;;;;;5002165;28;20670;-67
2021/12/17 15:34:45;;;;;;;20.25;11.15;;;;;;;;;;5006912;28;20197;-67
2021/12/17 15:37:10;;;;;;;20.23;9.73;;;;;;;;;;4994123;28;20278;-67
2021/12/17 15:39:36;;;;;;;17.88;10.50;;;;;;;;;;5001579;28;20279;-67
2021/12/17 15:42:01;;;;;;;17.13;10.37;;;;;;;;;;4996994;28;20615;-68
2021/12/17 15:44:27;;;;;;;17.67;10.07;;;;;;;;;;5001786;28;20383;-67
2021/12/17 15:46:52;;;;;;;18.83;10.45;;;;;;;;;;5001988;28;20221;-67
2021/12/17 15:49:18;;;;;;;16.48;9.98;;;;;;;;;;5005171;28;20199;-68
2021/12/17 15:51:43;;;;;;;16.40;10.60;;;;;;;;;;4996524;28;20286;-67
2021/12/17 15:54:09;;;;;;;19.15;10.07;;;;;;;;;;5007988;28;20187;-67
2021/12/17 15:56:34;;;;;;;16.03;9.77;;;;;;;;;;4998726;28;20198;-67
2021/12/17 15:59:00;;;;;;;22.13;10.85;;;;;;;;;;5009964;28;20190;-67
2021/12/17 16:01:25;;;;;;;18.97;10.43;;;;;;;;;;5003760;28;20190;-67
2021/12/17 16:03:51;;;;;;;16.95;10.48;;;;;;;;;;4997628;28;20193;-67
2021/12/17 16:06:16;;;;;;;19.48;10.27;;;;;;;;;;5002555;28;20195;-67
2021/12/17 16:08:46;;;;;;;19.63;10.70;;;;;;;;;;4987634;28;20183;-69
2021/12/17 16:16:55;;;;;;;19.38;10.65;;;;;;;;;;5004350;28;20189;-66
2021/12/17 16:21:56;;;;;;;23.83;11.73;;;;;;;;;;5005409;28;20669;-67
2021/12/17 16:24:21;;;;;;;22.00;11.57;;;;;;;;;;4996499;28;20565;-66
2021/12/17 16:26:46;;;;;;;19.98;11.50;;;;;;;;;;4316815;28;10000745;-67
2021/12/17 16:29:18;;;;;;;22.07;12.20;;;;;;;;;;4998335;28;20202;-67
2021/12/17 16:31:45;;;;;;;22.23;11.00;;;;;;;;;;5002983;28;20278;-66
2021/12/17 16:34:11;;;;;;;19.93;11.10;;;;;;;;;;4996067;28;20199;-68
2021/12/17 16:36:38;;;;;;;20.63;11.40;;;;;;;;;;5006275;28;20184;-68
2021/12/17 16:39:06;;;;;;;24.40;11.43;;;;;;;;;;4998615;28;20197;-68
2021/12/17 16:41:32;;;;;;;22.43;11.83;;;;;;;;;;5012159;28;20577;-67
2021/12/17 16:44:03;;;;;;;23.25;11.88;;;;;;;;;;5001038;28;20221;-66
2021/12/17 16:47:01;;;;;;;21.93;11.27;;;;;;;;;;5002059;28;20209;-66
2021/12/17 16:49:22;;;;;;;22.77;11.87;;;;;;;;;;4994351;28;20285;-68
2021/12/17 16:51:49;;;;;;;22.50;11.45;;;;;;;;;;5002202;28;20183;-66
2021/12/17 16:54:16;;;;;;;21.50;11.80;;;;;;;;;;4998380;28;20246;-66
2021/12/17 16:56:41;;;;;;;24.35;12.73;;;;;;;;;;5006902;28;20510;-68
2021/12/17 16:59:07;;;;;;;22.20;12.20;;;;;;;;;;5006074;28;20191;-66
2021/12/17 17:01:38;;;;;;;26.77;13.23;;;;;;;;;;4989221;28;20765;-66
2021/12/17 17:04:06;;;;;;;24.77;13.17;;;;;;;;;;4997922;28;20191;-66
2021/12/17 17:06:32;;;;;;;27.98;13.13;;;;;;;;;;4993342;28;20289;-68
2021/12/17 17:09:04;;;;;;;22.83;12.70;;;;;;;;;;5005261;28;20260;-67
2021/12/17 17:11:30;;;;;;;23.47;12.40;;;;;;;;;;4999713;28;20195;-67
2021/12/17 17:13:57;;;;;;;24.02;14.07;;;;;;;;;;5005036;28;20303;-67
2021/12/17 17:16:23;;;;;;;24.50;12.70;;;;;;;;;;5000715;28;20194;-67
2021/12/17 17:18:48;;;;;;;26.67;12.93;;;;;;;;;;5002847;28;20189;-67
2021/12/17 17:21:14;;;;;;;25.25;13.38;;;;;;;;;;5000492;28;20273;-67
2021/12/17 17:23:41;;;;;;;25.73;12.83;;;;;;;;;;5006569;28;20582;-67
2021/12/17 17:26:09;;;;;;;25.10;11.97;;;;;;;;;;4996796;28;20191;-67
2021/12/17 17:28:41;;;;;;;23.17;12.37;;;;;;;;;;5005124;28;20206;-67
2021/12/17 17:31:07;;;;;;;23.53;12.23;;;;;;;;;;5001553;28;21166;-67